Time;durP1;ratioP1;P1;durP2;ratioP2;P2;SDS_P1;SDS_P2;PMS_P1;PMS_P2;Temp;Humidity;BMP_temperature;BMP_pressure;BME280_temperature;BME280_humidity;BME280_pressure;Samples;Min_cycle;Max_cycle;Signal;HPM_P1;HPM_P2
2022/12/02 02:05:28;;;;;;;19.98;13.32;;;;;;;1.44;87.23;95052.02;1816801;78;21033;-46
2022/12/02 02:07:58;;;;;;;17.57;12.70;;;;;;;1.50;87.01;95050.48;1795179;79;21775;-48
2022/12/02 02:10:26;;;;;;;14.78;12.05;;;;;;;1.55;87.08;95046.06;1798456;78;20955;-47
2022/12/02 02:12:53;;;;;;;19.02;14.03;;;;;;;1.62;87.02;95046.64;1796234;78;21442;-46
2022/12/02 02:15:20;;;;;;;17.82;13.55;;;;;;;1.66;87.19;95048.22;1782981;78;21469;-48
2022/12/02 02:17:47;;;;;;;19.02;13.70;;;;;;;1.75;87.14;95048.64;1784988;78;20979;-47
2022/12/02 02:20:19;;;;;;;23.55;13.70;;;;;;;1.80;86.97;95045.55;1784462;78;21164;-47
2022/12/02 02:23:07;;;;;;;19.92;14.15;;;;;;;1.86;86.91;95045.36;1805635;78;21550;-47
2022/12/02 02:25:44;;;;;;;17.92;12.70;;;;;;;1.95;86.89;95043.06;1737178;81;20978;-48
2022/12/02 02:28:11;;;;;;;17.35;13.62;;;;;;;2.00;86.85;95054.89;1611460;87;21218;-46
2022/12/02 02:30:38;;;;;;;17.32;12.60;;;;;;;2.08;86.94;95045.02;1618990;87;21076;-47
2022/12/02 02:33:07;;;;;;;21.35;13.10;;;;;;;2.11;86.50;95044.25;1581440;88;21303;-47
2022/12/02 02:35:36;;;;;;;18.15;13.53;;;;;;;2.13;86.32;95037.09;1562695;90;21144;-47
2022/12/02 02:38:03;;;;;;;20.70;15.15;;;;;;;2.16;86.23;95040.38;1561120;90;21050;-47
2022/12/02 02:40:31;;;;;;;19.87;15.53;;;;;;;2.23;86.53;95037.66;1601868;88;21058;-47
2022/12/02 02:43:00;;;;;;;26.25;17.77;;;;;;;2.40;86.90;95034.18;1580053;90;21081;-48
2022/12/02 02:45:29;;;;;;;22.65;15.35;;;;;;;2.56;86.17;95038.64;1567575;90;21297;-48
2022/12/02 02:47:57;;;;;;;55.83;30.00;;;;;;;2.58;85.73;95030.87;1570202;90;21189;-46
2022/12/02 02:50:25;;;;;;;88.42;41.08;;;;;;;2.65;85.74;95034.97;1556002;90;21678;-47
2022/12/02 02:52:52;;;;;;;38.10;22.35;;;;;;;2.72;85.29;95030.27;1564593;90;21075;-47
2022/12/02 02:55:23;;;;;;;41.73;24.18;;;;;;;2.77;84.90;95024.47;1565245;90;21006;-48
2022/12/02 02:57:50;;;;;;;49.53;27.27;;;;;;;2.84;84.74;95022.33;1568054;90;21143;-47
2022/12/02 03:00:19;;;;;;;48.45;27.00;;;;;;;2.90;84.60;95028.91;1565626;90;21107;-47
2022/12/02 03:02:50;;;;;;;36.95;21.80;;;;;;;2.95;84.09;95023.85;1569124;90;21073;-47
2022/12/02 03:05:17;;;;;;;35.17;20.20;;;;;;;2.91;83.56;95019.58;1580756;89;21082;-48
2022/12/02 03:07:44;;;;;;;40.80;22.93;;;;;;;2.88;83.82;95022.49;1573215;90;21081;-47
2022/12/02 03:10:11;;;;;;;49.23;26.40;;;;;;;2.91;83.31;95010.84;1601905;89;21275;-48
2022/12/02 03:12:39;;;;;;;51.58;28.85;;;;;;;2.91;83.65;95015.52;1574666;90;21151;-47
2022/12/02 03:15:07;;;;;;;51.90;27.52;;;;;;;2.97;83.46;95018.80;1577866;89;21765;-47
2022/12/02 03:17:35;;;;;;;41.15;22.52;;;;;;;3.02;83.46;95012.20;1629988;87;21495;-47
2022/12/02 03:20:02;;;;;;;30.68;18.57;;;;;;;3.10;83.35;95015.08;1616674;87;21011;-47
2022/12/02 03:22:30;;;;;;;28.15;18.73;;;;;;;3.15;82.78;95011.95;1624443;87;21321;-46
2022/12/02 03:24:57;;;;;;;27.60;17.17;;;;;;;3.13;82.46;95009.64;1708085;79;20978;-47
2022/12/02 03:27:23;;;;;;;25.77;17.23;;;;;;;3.12;82.22;95001.30;1813336;78;20978;-47
2022/12/02 03:29:51;;;;;;;23.90;17.92;;;;;;;3.10;82.36;95002.27;1784659;79;21058;-47
2022/12/02 03:32:17;;;;;;;29.25;21.55;;;;;;;3.16;82.46;95003.98;1800244;78;20951;-47
2022/12/02 03:34:44;;;;;;;31.50;21.90;;;;;;;3.23;82.30;95008.05;1797133;78;21144;-47
2022/12/02 03:37:11;;;;;;;27.10;20.90;;;;;;;3.27;81.83;95008.81;1790463;79;20998;-47
2022/12/02 03:39:37;;;;;;;33.18;22.82;;;;;;;3.22;81.49;95009.98;1792508;78;20958;-48
2022/12/02 03:42:05;;;;;;;33.30;23.02;;;;;;;3.22;81.77;95001.06;1799330;78;21454;-47
2022/12/02 03:44:32;;;;;;;32.35;20.90;;;;;;;3.24;81.52;94998.72;1793702;79;21005;-47
2022/12/02 03:46:59;;;;;;;30.80;21.17;;;;;;;3.27;81.42;94997.94;1796339;78;21944;-47
2022/12/02 03:49:25;;;;;;;31.82;22.02;;;;;;;3.28;81.50;95002.20;1803192;78;21144;-47
2022/12/02 03:51:52;;;;;;;73.25;45.85;;;;;;;3.39;81.68;95009.14;1805912;79;20988;-47
2022/12/02 03:54:19;;;;;;;60.83;39.10;;;;;;;3.43;81.39;95009.13;1782075;78;20998;-47
2022/12/02 03:56:45;;;;;;;48.08;30.27;;;;;;;3.50;81.22;95006.56;1795885;78;21510;-47
2022/12/02 03:59:19;;;;;;;32.58;22.40;;;;;;;3.52;80.75;95002.09;1798202;78;21816;-47
2022/12/02 07:15:34;;;;;;;22.40;16.32;;;;;;;1.84;86.36;95074.80;1812914;77;26469;-53
2022/12/02 07:18:17;;;;;;;30.02;17.27;;;;;;;1.82;86.19;95077.13;1780410;78;21081;-54
2022/12/02 07:20:44;;;;;;;32.45;20.05;;;;;;;1.85;86.17;95077.14;1770907;78;21258;-52
2022/12/02 07:23:45;;;;;;;;;;;;;;;;;;;;;
2022/12/02 07:27:22;;;;;;;38.25;22.85;;;;;;;2.08;85.82;95077.58;1811885;77;26183;-51
2022/12/02 07:29:49;;;;;;;42.93;27.30;;;;;;;2.11;85.68;95077.41;1779284;78;21685;-52
2022/12/02 07:32:17;;;;;;;42.55;27.98;;;;;;;2.14;85.44;95084.77;1788330;78;21241;-51
2022/12/02 07:34:47;;;;;;;37.13;24.25;;;;;;;2.22;85.55;95080.89;1761910;78;21116;-50
2022/12/02 07:37:17;;;;;;;47.97;32.47;;;;;;;2.31;85.14;95085.37;1776765;79;21060;-51
2022/12/02 07:39:44;;;;;;;34.38;22.65;;;;;;;2.37;84.98;95077.83;1770082;79;21079;-48
2022/12/02 07:42:13;;;;;;;53.48;32.33;;;;;;;2.46;84.77;95076.84;1777248;78;21072;-51
2022/12/02 07:44:40;;;;;;;45.03;27.22;;;;;;;2.51;84.55;95081.12;1745977;79;21159;-49
2022/12/02 07:47:08;;;;;;;49.58;29.92;;;;;;;2.56;84.41;95078.80;1759322;79;21068;-53
2022/12/02 07:49:48;;;;;;;40.48;27.85;;;;;;;2.61;84.28;95077.63;1770195;79;21099;-54
2022/12/02 07:52:24;;;;;;;48.30;30.25;;;;;;;2.68;84.16;95078.99;1687206;81;21176;-54
2022/12/02 07:54:54;;;;;;;40.65;28.52;;;;;;;2.82;83.90;95078.96;1677982;81;21577;-55
2022/12/02 07:57:21;;;;;;;34.38;24.92;;;;;;;2.90;83.56;95079.17;1694469;82;22374;-52
2022/12/02 07:59:48;;;;;;;59.80;35.40;;;;;;;2.98;83.57;95080.13;1679596;82;21158;-52
2022/12/02 08:02:17;;;;;;;52.75;30.35;;;;;;;3.07;83.72;95078.38;1681477;83;21124;-51
2022/12/02 08:04:44;;;;;;;36.98;24.67;;;;;;;3.27;83.50;95078.89;1694421;81;21617;-50
2022/12/02 08:07:17;;;;;;;80.05;44.48;;;;;;;3.43;82.94;95079.84;1697804;81;21159;-53
2022/12/02 08:09:44;;;;;;;57.58;34.80;;;;;;;3.56;82.41;95075.72;1672875;83;21194;-55
2022/12/02 08:12:15;;;;;;;43.98;28.15;;;;;;;3.67;81.91;95069.63;1699794;81;21658;-51
2022/12/02 08:14:43;;;;;;;51.45;31.62;;;;;;;3.77;81.77;95074.84;1688894;81;21102;-48
2022/12/02 08:17:12;;;;;;;46.58;30.88;;;;;;;3.96;81.42;95069.70;1641368;85;21119;-55
2022/12/02 08:19:40;;;;;;;50.30;31.62;;;;;;;4.08;80.62;95063.78;1683121;81;21188;-55
2022/12/02 08:22:07;;;;;;;46.00;30.17;;;;;;;4.15;80.31;95069.77;1711035;81;21387;-53
2022/12/02 08:24:34;;;;;;;44.13;29.12;;;;;;;4.23;79.64;95069.34;1694542;81;21053;-56
2022/12/02 08:27:01;;;;;;;44.77;28.23;;;;;;;4.38;79.58;95065.35;1680108;84;21135;-58
2022/12/02 08:29:29;;;;;;;47.88;31.05;;;;;;;4.43;78.67;95062.20;1673474;84;21667;-53
2022/12/02 08:31:56;;;;;;;59.63;35.98;;;;;;;4.40;78.48;95067.69;1656280;84;21157;-55
2022/12/02 08:34:23;;;;;;;61.08;37.85;;;;;;;4.42;78.43;95059.89;1661905;84;21219;-53
2022/12/02 08:36:50;;;;;;;64.62;42.15;;;;;;;4.43;78.27;95064.16;1681296;83;21885;-53
2022/12/02 08:39:17;;;;;;;67.45;41.68;;;;;;;4.36;78.31;95057.38;1669010;83;21221;-50
2022/12/02 08:41:46;;;;;;;59.23;36.83;;;;;;;4.44;78.58;95054.81;1660683;84;21088;-54
2022/12/02 08:44:13;;;;;;;72.40;40.88;;;;;;;4.53;78.11;95053.76;1674151;84;21553;-56
2022/12/02 08:46:53;;;;;;;69.95;42.50;;;;;;;4.52;77.71;95049.48;1692001;81;21253;-54
2022/12/02 08:49:24;;;;;;;70.47;43.15;;;;;;;4.50;77.62;95049.91;1684633;81;21080;-49
2022/12/02 08:51:54;;;;;;;62.33;38.67;;;;;;;4.61;78.01;95049.22;1693336;82;21042;-60
2022/12/02 08:54:33;;;;;;;57.88;35.70;;;;;;;4.78;77.68;95044.21;1680632;83;21139;-61
2022/12/02 08:57:06;;;;;;;49.67;31.65;;;;;;;4.84;77.25;95039.89;1762893;78;21044;-55
2022/12/02 08:59:34;;;;;;;49.03;30.52;;;;;;;4.84;76.95;95045.34;1772333;79;21301;-56
2022/12/02 09:02:02;;;;;;;52.80;32.25;;;;;;;4.89;76.82;95039.45;1784690;79;21040;-58
2022/12/02 09:04:29;;;;;;;47.38;30.88;;;;;;;4.95;76.54;95046.00;1778779;79;21790;-54
2022/12/02 09:06:56;;;;;;;49.65;31.97;;;;;;;5.05;76.80;95041.63;1775490;78;21029;-50
2022/12/02 09:09:23;;;;;;;48.02;31.40;;;;;;;5.19;76.23;95040.89;1762914;79;21093;-56
2022/12/02 09:11:53;;;;;;;35.90;25.35;;;;;;;5.28;75.76;95041.20;1755608;79;21259;-56
2022/12/02 09:14:20;;;;;;;38.28;25.32;;;;;;;5.22;75.36;95045.56;1771300;79;21087;-57
2022/12/02 09:16:50;;;;;;;37.42;25.75;;;;;;;5.12;75.53;95038.25;1770373;79;21348;-56
2022/12/02 09:19:22;;;;;;;33.23;23.75;;;;;;;5.07;75.98;95033.23;1697025;81;22001;-55
2022/12/02 09:21:50;;;;;;;37.63;25.75;;;;;;;5.14;76.03;95026.34;1734467;80;21076;-53
2022/12/02 09:24:22;;;;;;;39.85;28.23;;;;;;;5.24;75.81;95033.65;1728772;80;21229;-55
2022/12/02 09:26:53;;;;;;;41.30;29.32;;;;;;;5.34;75.48;95026.72;1692965;82;21101;-58
2022/12/02 09:29:30;;;;;;;63.98;38.33;;;;;;;5.45;75.65;95025.23;1689734;82;21178;-57
2022/12/02 09:31:56;;;;;;;46.92;32.98;;;;;;;5.59;75.27;95025.83;1697552;82;21147;-57
2022/12/02 09:34:34;;;;;;;49.55;31.50;;;;;;;5.68;74.62;95024.76;1724629;81;21143;-54
2022/12/02 09:37:05;;;;;;;48.68;32.48;;;;;;;5.72;74.33;95029.58;1713761;81;21150;-54
2022/12/02 09:39:53;;;;;;;61.18;39.33;;;;;;;5.75;74.71;95017.08;1667976;83;21156;-52
2022/12/02 09:42:28;;;;;;;60.08;37.93;;;;;;;5.90;74.72;95017.87;1620687;86;21170;-54
2022/12/02 09:45:07;;;;;;;57.50;36.33;;;;;;;6.11;73.92;95016.78;1616688;86;21100;-54
2022/12/02 09:47:44;;;;;;;46.58;32.05;;;;;;;6.20;73.53;95019.79;1603844;86;21140;-54
2022/12/02 09:50:14;;;;;;;49.85;32.35;;;;;;;6.25;72.96;95017.95;1596086;88;21225;-55
2022/12/02 09:52:41;;;;;;;91.00;51.20;;;;;;;6.13;72.20;95015.80;1572679;89;21204;-54
2022/12/02 09:55:16;;;;;;;50.20;32.93;;;;;;;6.02;72.24;95013.80;1550463;89;21172;-52
2022/12/02 09:57:46;;;;;;;103.55;55.55;;;;;;;6.00;71.97;95014.20;1572436;88;21143;-57
2022/12/02 10:00:23;;;;;;;52.23;32.90;;;;;;;5.98;72.08;95010.36;1556822;89;21134;-57
2022/12/02 10:02:53;;;;;;;;;;;;;;;6.05;72.17;95012.98;1564269;89;21414;-54
2022/12/02 10:05:28;;;;;;;66.30;39.88;;;;;;;6.09;72.47;95013.70;1582332;88;20202;-48
2022/12/02 10:07:57;;;;;;;91.02;54.20;;;;;;;6.14;71.90;95015.38;1568727;89;22158;-53
2022/12/02 10:10:35;;;;;;;47.70;32.03;;;;;;;6.10;71.66;95009.77;1587558;88;21063;-52
2022/12/02 10:13:03;;;;;;;37.30;26.48;;;;;;;6.01;71.46;95013.02;1570430;88;21151;-59
2022/12/02 10:15:33;;;;;;;39.70;26.90;;;;;;;5.96;71.82;95014.09;1547153;90;21284;-53
2022/12/02 10:18:04;;;;;;;42.50;28.73;;;;;;;5.93;71.71;95007.48;1546535;90;21138;-48
2022/12/02 10:20:31;;;;;;;37.25;25.62;;;;;;;5.87;72.15;95005.62;1528377;90;21771;-54
2022/12/02 10:23:21;;;;;;;37.33;25.50;;;;;;;5.87;72.15;95007.77;1539113;91;21092;-54
2022/12/02 10:25:57;;;;;;;48.68;29.85;;;;;;;5.86;72.42;95005.44;1582956;87;21187;-58
2022/12/02 10:28:31;;;;;;;42.78;27.95;;;;;;;5.92;72.52;95010.61;1594010;87;21715;-58
2022/12/02 10:31:03;;;;;;;35.80;24.12;;;;;;;5.84;72.37;95010.53;1534652;91;21210;-56
2022/12/02 10:33:34;;;;;;;32.23;22.67;;;;;;;5.78;72.59;95016.25;1530918;90;21319;-60
2022/12/02 10:36:01;;;;;;;39.83;26.57;;;;;;;5.76;72.69;95011.80;1526653;92;21163;-57
2022/12/02 10:38:41;;;;;;;39.18;26.23;;;;;;;5.77;72.85;95008.64;1501646;93;21700;-55
2022/12/02 10:41:19;;;;;;;42.67;28.87;;;;;;;5.81;72.63;95002.56;1503182;94;21179;-57
2022/12/02 10:44:01;;;;;;;44.15;29.00;;;;;;;5.86;72.41;95004.08;1496551;94;21120;-55
2022/12/02 10:46:29;;;;;;;52.75;33.50;;;;;;;5.85;72.45;95005.26;1497304;94;21099;-58
2022/12/02 10:49:18;;;;;;;42.15;28.70;;;;;;;5.79;72.78;95009.64;1505589;90;21215;-55
2022/12/02 10:51:45;;;;;;;41.20;27.98;;;;;;;5.87;72.62;95001.52;1530123;90;21159;-51
2022/12/02 10:54:20;;;;;;;47.35;33.28;;;;;;;5.87;72.46;95000.16;1525231;91;21290;-55
2022/12/02 10:56:56;;;;;;;74.27;45.33;;;;;;;5.82;72.34;95001.38;1489325;93;21077;-49
2022/12/02 10:59:38;;;;;;;53.52;34.10;;;;;;;5.74;72.49;94995.03;1541131;90;21304;-54
2022/12/02 11:02:12;;;;;;;40.28;27.67;;;;;;;5.72;72.42;95001.49;1548907;90;21166;-53
2022/12/02 11:04:40;;;;;;;40.85;26.90;;;;;;;5.63;72.77;94995.17;1505610;93;21659;-53
2022/12/02 11:07:14;;;;;;;54.75;34.18;;;;;;;5.65;73.02;94992.83;1505396;92;21295;-57
2022/12/02 11:09:45;;;;;;;48.90;30.45;;;;;;;5.77;72.97;94993.63;1483744;93;21205;-53
2022/12/02 11:12:34;;;;;;;52.43;32.85;;;;;;;5.91;72.47;94987.23;1480805;95;21105;-56
2022/12/02 11:15:01;;;;;;;50.00;32.45;;;;;;;5.95;72.25;94987.37;1459177;95;21252;-59
2022/12/02 11:17:50;;;;;;;41.98;28.42;;;;;;;5.99;72.01;95003.70;1434563;98;21189;-55
2022/12/02 11:21:02;;;;;;;;;;;;;;;;;;;;;
2022/12/02 11:23:46;;;;;;;;;;;;;;;;;;;;;
2022/12/02 11:26:15;;;;;;;47.90;28.75;;;;;;;5.73;71.94;94998.94;1433949;98;21173;-52
2022/12/02 11:29:24;;;;;;;34.88;23.73;;;;;;;5.84;72.13;94992.22;1434580;97;21151;-56
2022/12/02 11:32:22;;;;;;;32.10;21.27;;;;;;;5.95;71.73;95000.27;1458074;96;21663;-52
2022/12/02 11:34:53;;;;;;;32.95;23.12;;;;;;;5.83;71.83;94999.44;1473378;96;21227;-54
2022/12/02 11:37:37;;;;;;;27.40;21.17;;;;;;;5.71;72.10;94994.48;1462731;97;21162;-57
2022/12/02 11:40:21;;;;;;;25.90;19.23;;;;;;;5.72;72.45;94997.40;1452807;96;21715;-54
2022/12/02 11:42:48;;;;;;;24.67;18.27;;;;;;;5.72;72.41;94991.94;1453882;98;21199;-56
2022/12/02 11:48:53;;;;;;;34.67;25.00;;;;;;;5.62;72.44;94988.77;1400312;101;22103;-54
2022/12/02 11:51:31;;;;;;;38.95;29.92;;;;;;;5.61;72.94;94991.32;1387192;101;21343;-54
2022/12/02 11:53:58;;;;;;;40.90;29.18;;;;;;;5.62;72.85;94991.50;1418215;99;21246;-54
2022/12/02 11:56:40;;;;;;;43.17;29.98;;;;;;;5.57;73.17;94991.97;1434083;98;21199;-55
2022/12/02 11:59:30;;;;;;;39.53;28.15;;;;;;;5.54;73.34;94983.20;1441188;99;21197;-56
2022/12/02 12:02:29;;;;;;;48.75;30.82;;;;;;;5.56;73.30;94986.30;1448683;96;21694;-52
2022/12/02 12:05:05;;;;;;;49.33;31.85;;;;;;;5.46;73.19;94984.48;1447453;97;21666;-57
2022/12/02 12:07:47;;;;;;;42.80;30.20;;;;;;;5.46;73.72;94981.76;1451094;98;21402;-57
2022/12/02 12:10:33;;;;;;;41.33;28.32;;;;;;;5.51;73.75;94981.30;1463877;96;21151;-54
2022/12/02 12:13:18;;;;;;;37.30;26.07;;;;;;;5.39;73.52;94981.86;1441374;98;21209;-55
2022/12/02 12:16:01;;;;;;;35.68;25.00;;;;;;;5.27;73.84;94986.47;1448102;96;21354;-55
2022/12/02 12:18:38;;;;;;;35.78;24.02;;;;;;;5.22;74.02;94988.28;1419156;100;21100;-56
2022/12/02 12:21:05;;;;;;;34.85;25.32;;;;;;;5.15;74.16;94984.86;1445012;97;21739;-54
2022/12/02 12:23:36;;;;;;;33.05;22.85;;;;;;;5.14;74.58;94985.44;1517230;91;21623;-56
2022/12/02 12:26:04;;;;;;;37.00;24.77;;;;;;;5.17;74.54;94985.98;1508515;92;21340;-56
2022/12/02 12:28:34;;;;;;;40.58;27.37;;;;;;;5.15;74.52;94981.53;1521109;91;22324;-54
2022/12/02 12:31:02;;;;;;;49.98;31.62;;;;;;;5.11;74.72;94974.59;1489980;94;21655;-52
2022/12/02 12:33:32;;;;;;;44.70;29.60;;;;;;;5.12;74.93;94978.86;1522386;91;21173;-54
2022/12/02 12:36:01;;;;;;;45.50;27.85;;;;;;;5.19;74.87;94976.05;1437205;97;21773;-51
2022/12/02 12:38:29;;;;;;;53.33;33.42;;;;;;;5.22;74.90;94980.11;1433130;96;21161;-57
2022/12/02 12:40:59;;;;;;;48.10;29.75;;;;;;;5.20;74.86;94981.11;1444619;96;21254;-53
2022/12/02 12:43:26;;;;;;;39.15;27.00;;;;;;;5.24;75.06;94979.11;1438678;98;21664;-54
2022/12/02 12:45:53;;;;;;;44.77;28.05;;;;;;;5.30;75.18;94977.47;1439087;97;21156;-53
2022/12/02 12:48:25;;;;;;;52.17;31.20;;;;;;;5.39;74.98;94984.59;1447260;97;21101;-53
2022/12/02 12:51:07;;;;;;;56.48;31.73;;;;;;;5.39;74.47;94985.95;1449610;96;22649;-50
2022/12/02 12:53:50;;;;;;;50.67;30.75;;;;;;;5.35;74.41;94979.73;1445337;97;21924;-55
2022/12/02 12:56:27;;;;;;;43.30;25.75;;;;;;;5.32;74.48;94983.28;1439635;97;21202;-53
2022/12/02 12:59:26;;;;;;;33.78;23.20;;;;;;;5.27;74.39;94981.77;1440721;97;21200;-57
2022/12/02 13:02:36;;;;;;;;;;;;;;;;;;;;;
2022/12/02 13:05:23;;;;;;;34.35;22.40;;;;;;;5.15;74.44;94989.71;1361868;101;21313;-52
2022/12/02 13:08:04;;;;;;;35.88;23.38;;;;;;;5.03;74.64;94987.52;1387215;98;21225;-57
2022/12/02 13:10:36;;;;;;;36.65;23.60;;;;;;;5.05;74.60;94986.52;1295476;107;21841;-54
2022/12/02 13:13:11;;;;;;;34.83;24.15;;;;;;;5.04;75.05;94995.89;1302901;107;21295;-50
2022/12/02 13:16:07;;;;;;;;;;;;;;;;;;;;;
2022/12/02 13:19:35;;;;;;;37.13;25.50;;;;;;;5.16;74.89;95005.50;1282373;108;21173;-55
2022/12/02 13:22:15;;;;;;;39.83;25.80;;;;;;;5.17;74.71;95002.95;1281539;108;22222;-58
2022/12/02 13:24:45;;;;;;;38.58;25.30;;;;;;;5.08;74.69;95008.88;1283752;109;21359;-53
2022/12/02 13:28:05;;;;;;;36.68;23.42;;;;;;;5.08;74.67;95002.06;1274686;108;21357;-53
2022/12/02 13:30:35;;;;;;;37.42;24.10;;;;;;;5.07;74.62;95005.98;1276858;109;21385;-58
2022/12/02 13:33:03;;;;;;;37.65;24.65;;;;;;;5.01;74.77;95014.39;1273295;108;21790;-54
2022/12/02 13:35:30;;;;;;;46.20;26.68;;;;;;;5.03;74.70;95010.70;1267502;109;21294;-54
2022/12/02 13:37:58;;;;;;;42.45;27.10;;;;;;;5.04;74.48;95010.88;1260891;108;21194;-56
2022/12/02 13:40:43;;;;;;;46.70;30.27;;;;;;;4.98;74.34;95011.12;1287920;109;21326;-52
2022/12/02 13:43:13;;;;;;;51.55;30.68;;;;;;;4.93;74.47;95019.74;1345651;104;21182;-57
2022/12/02 13:45:43;;;;;;;61.10;35.10;;;;;;;4.96;74.38;95012.11;1333777;104;21260;-52
2022/12/02 13:48:12;;;;;;;51.45;32.13;;;;;;;4.96;74.20;95014.84;1338259;103;21403;-52
2022/12/02 13:50:47;;;;;;;46.28;29.48;;;;;;;4.96;74.05;95020.29;1358611;102;22170;-53
2022/12/02 13:53:17;;;;;;;45.08;30.32;;;;;;;4.95;73.97;95017.98;1313398;106;21296;-53
2022/12/02 13:55:47;;;;;;;56.33;32.40;;;;;;;4.95;73.81;95025.56;1298775;107;21221;-54
2022/12/02 13:58:16;;;;;;;47.55;29.90;;;;;;;4.86;73.85;95023.91;1301457;108;21243;-55
2022/12/02 14:00:43;;;;;;;48.70;29.70;;;;;;;4.79;73.97;95028.05;1356897;102;21362;-52
2022/12/02 14:03:11;;;;;;;43.45;28.38;;;;;;;4.76;73.80;95027.48;1434464;97;21749;-53
2022/12/02 14:05:38;;;;;;;39.80;26.65;;;;;;;4.67;73.84;95029.13;1454276;96;21735;-55
2022/12/02 14:08:09;;;;;;;41.63;26.68;;;;;;;4.58;74.00;95032.31;1462413;96;21172;-53
2022/12/02 17:58:53;;;;;;;70.35;37.55;;;;;;;2.20;83.43;95151.86;1836158;77;26217;-52
2022/12/02 18:01:20;;;;;;;72.32;38.78;;;;;;;2.14;83.41;95166.17;1787448;79;21028;-51
2022/12/02 18:03:47;;;;;;;59.30;34.73;;;;;;;2.10;83.46;95161.32;1780457;79;21132;-49
2022/12/02 18:06:15;;;;;;;63.90;36.08;;;;;;;2.13;83.61;95156.48;1800876;78;22354;-49
2022/12/02 18:08:41;;;;;;;68.45;40.65;;;;;;;2.15;83.72;95155.52;1782686;78;20930;-50
2022/12/02 18:11:08;;;;;;;63.52;37.75;;;;;;;2.16;83.71;95159.19;1795432;79;21444;-50
2022/12/02 18:13:35;;;;;;;72.05;40.63;;;;;;;2.16;83.74;95157.06;1792708;78;21620;-51
2022/12/02 18:16:04;;;;;;;77.97;41.73;;;;;;;2.12;83.73;95160.36;1798653;78;21369;-50
2022/12/02 18:18:30;;;;;;;64.17;37.20;;;;;;;2.12;83.83;95160.36;1819724;78;21414;-51
2022/12/02 18:20:57;;;;;;;65.15;36.85;;;;;;;2.14;83.94;95168.89;1811095;78;20958;-51
2022/12/02 18:23:24;;;;;;;63.42;38.23;;;;;;;2.17;83.95;95170.83;1787962;79;21486;-50
2022/12/02 18:25:50;;;;;;;77.65;43.70;;;;;;;2.21;84.04;95171.61;1799419;78;20943;-49
2022/12/02 18:28:17;;;;;;;70.22;40.98;;;;;;;2.25;84.18;95166.97;1782113;79;21213;-51
2022/12/02 18:30:43;;;;;;;69.82;39.83;;;;;;;2.39;84.25;95161.58;1792292;79;20998;-49
2022/12/02 18:33:10;;;;;;;75.80;44.25;;;;;;;2.49;83.95;95158.12;1817984;78;21033;-52
2022/12/02 18:35:37;;;;;;;73.87;45.25;;;;;;;2.53;83.59;95165.09;1793044;78;21053;-50
2022/12/02 18:38:03;;;;;;;67.37;39.05;;;;;;;2.61;83.73;95161.23;1784712;78;21434;-50
2022/12/02 18:40:30;;;;;;;72.08;41.10;;;;;;;2.70;83.54;95164.94;1803589;78;21235;-49
2022/12/02 18:42:57;;;;;;;76.50;42.95;;;;;;;2.83;83.26;95166.12;1795942;78;20958;-51
2022/12/02 18:45:24;;;;;;;69.25;39.90;;;;;;;2.88;82.80;95165.12;1806079;78;20998;-51
2022/12/02 18:47:50;;;;;;;69.25;38.90;;;;;;;2.94;82.67;95164.95;1795519;78;21518;-50
2022/12/02 18:50:17;;;;;;;75.83;41.50;;;;;;;2.96;82.23;95167.27;1800857;78;21086;-50
2022/12/02 18:52:44;;;;;;;66.33;39.48;;;;;;;3.00;82.01;95162.59;1811540;78;22291;-50
2022/12/02 18:55:13;;;;;;;75.52;39.40;;;;;;;3.04;81.79;95162.04;1793671;78;21108;-49
2022/12/02 18:57:40;;;;;;;79.92;45.75;;;;;;;3.12;81.91;95161.65;1795082;79;21292;-49
2022/12/02 19:00:10;;;;;;;77.92;46.45;;;;;;;3.21;81.56;95165.33;1790346;79;20970;-50
2022/12/02 19:02:36;;;;;;;69.03;39.48;;;;;;;3.27;81.31;95163.77;1787348;79;20967;-49
2022/12/02 19:05:05;;;;;;;75.62;40.95;;;;;;;3.32;80.93;95168.80;1788020;79;21277;-50
2022/12/02 19:07:35;;;;;;;74.42;41.50;;;;;;;3.33;80.93;95174.42;1796564;79;20998;-49
2022/12/02 19:10:03;;;;;;;82.37;43.90;;;;;;;3.36;80.53;95168.20;1794429;79;21007;-50
2022/12/02 19:12:30;;;;;;;85.92;47.25;;;;;;;3.36;80.34;95173.08;1781522;79;21560;-50
2022/12/02 19:14:57;;;;;;;87.85;46.10;;;;;;;3.37;80.47;95170.55;1791205;79;21052;-50
2022/12/02 19:17:24;;;;;;;78.97;45.10;;;;;;;3.43;80.33;95174.41;1798816;79;22107;-51
2022/12/02 19:19:50;;;;;;;83.45;45.45;;;;;;;3.47;79.99;95168.98;1793722;79;21626;-50
2022/12/02 19:22:17;;;;;;;86.00;48.95;;;;;;;3.45;79.79;95175.39;1730153;82;21558;-51
2022/12/02 19:24:44;;;;;;;85.92;49.73;;;;;;;3.45;79.83;95172.67;1711472;82;21585;-50
2022/12/02 19:27:11;;;;;;;94.47;54.10;;;;;;;3.41;79.67;95167.23;1720731;82;21071;-53
2022/12/02 19:29:37;;;;;;;78.50;47.60;;;;;;;3.41;79.72;95173.27;1724188;81;21248;-52
2022/12/02 19:32:04;;;;;;;82.45;49.73;;;;;;;3.48;80.35;95172.08;1711648;82;20969;-51
2022/12/02 19:34:31;;;;;;;100.62;56.02;;;;;;;3.70;80.29;95161.33;1710327;83;21709;-51
2022/12/02 19:36:58;;;;;;;109.97;59.27;;;;;;;3.90;79.96;95169.23;1711451;82;21080;-51
2022/12/02 19:39:24;;;;;;;107.47;60.50;;;;;;;4.06;79.19;95166.84;1714842;81;21063;-51
2022/12/02 19:41:52;;;;;;;103.83;58.42;;;;;;;4.13;78.21;95170.92;1737112;81;21761;-51
2022/12/02 19:44:19;;;;;;;109.05;56.55;;;;;;;4.08;77.78;95178.11;1739278;81;21201;-50
2022/12/02 19:46:46;;;;;;;103.67;55.83;;;;;;;4.02;77.52;95177.58;1749709;79;21024;-50
2022/12/02 19:49:12;;;;;;;253.05;84.40;;;;;;;3.96;77.39;95170.97;1793699;79;21551;-50
2022/12/02 19:51:39;;;;;;;144.72;59.10;;;;;;;3.96;77.35;95168.25;1769055;79;21013;-51
2022/12/02 19:54:06;;;;;;;111.72;56.85;;;;;;;3.91;77.40;95176.23;1793619;79;21217;-50
2022/12/02 19:56:32;;;;;;;114.28;58.75;;;;;;;3.83;77.15;95168.52;1816151;79;20930;-49
2022/12/02 19:58:59;;;;;;;110.57;59.95;;;;;;;3.73;77.32;95168.70;1772181;78;20975;-49
2022/12/02 20:01:25;;;;;;;116.85;61.58;;;;;;;3.72;77.80;95160.35;1811362;79;20981;-49
2022/12/02 20:03:52;;;;;;;107.10;54.53;;;;;;;3.84;78.47;95154.50;1811050;78;21490;-50
2022/12/02 20:06:19;;;;;;;105.87;57.48;;;;;;;4.05;78.13;95162.58;1818673;79;21835;-50
2022/12/02 20:08:45;;;;;;;126.62;65.97;;;;;;;4.15;77.54;95161.77;1799133;78;21681;-50
2022/12/02 20:11:12;;;;;;;130.67;65.45;;;;;;;4.20;77.53;95158.63;1792797;79;21065;-51
2022/12/02 20:13:39;;;;;;;107.12;57.83;;;;;;;4.28;77.18;95157.41;1799384;78;21507;-50
2022/12/02 20:16:05;;;;;;;98.85;54.70;;;;;;;4.29;76.71;95158.98;1790197;78;20983;-50
2022/12/02 20:18:32;;;;;;;97.85;54.50;;;;;;;4.24;76.80;95155.30;1803504;78;21140;-50
2022/12/02 20:20:59;;;;;;;98.58;52.53;;;;;;;4.21;76.59;95153.37;1800197;79;20942;-50
2022/12/02 20:23:27;;;;;;;108.07;58.20;;;;;;;4.11;76.63;95152.84;1761361;79;21005;-51
2022/12/02 20:25:54;;;;;;;109.35;54.93;;;;;;;4.13;76.87;95158.67;1819357;79;20950;-49
2022/12/02 20:28:20;;;;;;;109.52;54.88;;;;;;;4.27;76.95;95155.86;1810673;78;21001;-48
2022/12/02 20:30:47;;;;;;;100.75;50.90;;;;;;;4.47;76.43;95160.23;1781293;79;21243;-49
2022/12/02 20:33:13;;;;;;;100.22;50.23;;;;;;;4.50;76.02;95160.23;1796583;78;21071;-50
2022/12/02 20:35:40;;;;;;;90.42;49.63;;;;;;;4.49;75.66;95164.13;1784427;79;21034;-50
2022/12/02 20:38:07;;;;;;;87.67;49.60;;;;;;;4.43;75.70;95166.30;1795561;79;20967;-51
2022/12/02 20:40:34;;;;;;;77.03;45.43;;;;;;;4.32;75.61;95160.91;1788604;78;21088;-50
2022/12/02 20:43:01;;;;;;;81.20;48.45;;;;;;;4.28;75.83;95168.30;1780426;78;21287;-50
2022/12/02 20:45:28;;;;;;;83.82;47.60;;;;;;;4.28;75.94;95160.13;1798526;78;20978;-49
2022/12/02 20:47:55;;;;;;;79.27;44.85;;;;;;;4.20;75.62;95165.44;1802176;78;20997;-50
2022/12/02 20:50:21;;;;;;;78.75;43.85;;;;;;;4.09;75.88;95156.52;1804901;79;21010;-50
2022/12/02 20:52:49;;;;;;;82.15;46.18;;;;;;;4.02;76.19;95166.09;1799274;78;21477;-50
2022/12/02 20:55:16;;;;;;;85.25;48.08;;;;;;;3.99;76.58;95162.80;1789215;78;21994;-48
2022/12/02 20:57:43;;;;;;;84.30;48.15;;;;;;;4.06;76.49;95169.57;1788388;79;21052;-49
2022/12/02 21:00:11;;;;;;;83.62;46.60;;;;;;;4.15;76.92;95165.85;1792723;79;20966;-50
2022/12/02 21:02:38;;;;;;;83.37;46.58;;;;;;;4.32;76.57;95169.08;1773743;78;21435;-49